LIRN Información de aeropuertos

Información de pistas
Pista 06 Longitud 8622 ft Ancho 148 ft
Elevación 284 ft Umbral 1309 ft Rumbo 58
Pista 24 Longitud 8622 ft Ancho 148 ft
Elevación 223 ft Umbral 624 ft Rumbo 238
Frecuencias
Tipo APP Nombre NAPOLI RAD Frequencia 124.35 MHZ
Tipo ATIS Nombre ATIS Frequencia 135.975 MHZ
Tipo DIR Nombre NAPOLI DIR Frequencia 120.95 MHZ
Tipo GCCD Nombre NAPOLI GND Frequencia 121.9 MHZ
Tipo OPS Nombre USN BASE O Frequencia 118.275 MHZ
Tipo PMSV Nombre PMSV METRO Frequencia 34.1 MHZ
Tipo POST Nombre ATOC Frequencia 118.275 MHZ
Tipo TWR Nombre NAPOLI TWR Frequencia 118.5 MHZ
Radioayudas
Tipo VOR-DME Nombre Pomigliano Frequencia 117850 KHZ
Tipo NDB Nombre Pomigliano Frequencia 351 KHZ
Información meteorológica y NOTAM
ADDS - METARS form results

(2228 UTC 10 August 2020)
Data provider http://aviationweather.gov/metar/data/
 
METAR text: LIRN 102220Z 32002KT 9999 FEW060 26/20 Q1015 NOSIG
Conditions at: LIRN (NAPLES/CAPODICHI, IT) observed 2220 UTC 10 August 2020
Temperature: 26.0°C (79°F)
Dewpoint: 20.0°C (68°F) [RH = 70%]
Pressure (altimeter): 29.97 inches Hg (1015.0 mb)
Winds: from the NW (320 degrees) at 2 MPH (2 knots; 1.0 m/s)
Visibility: 6 or more miles (10+ km)
Ceiling: at least 12,000 feet AGL
Clouds: few clouds at 6000 feet AGL
Weather: no significant weather observed at this time

METAR text: LIRN 102150Z 01003KT 9999 SCT060 27/20 Q1015 NOSIG
Conditions at: LIRN (NAPLES/CAPODICHI, IT) observed 2150 UTC 10 August 2020
Temperature: 27.0°C (81°F)
Dewpoint: 20.0°C (68°F) [RH = 66%]
Pressure (altimeter): 29.97 inches Hg (1015.0 mb)
Winds: from the N (10 degrees) at 3 MPH (3 knots; 1.5 m/s)
Visibility: 6 or more miles (10+ km)
Ceiling: at least 12,000 feet AGL
Clouds: scattered clouds at 6000 feet AGL
Weather: no significant weather observed at this time

Forecast for: LIRN (NAPLES/CAPODICHI, IT)
Text: TAF LIRN 101700Z 1018/1118 VRB05KT
Forecast period: 1800 UTC 10 August 2020 to 0900 UTC 11 August 2020
Forecast type: FROM: standard forecast or significant change
Winds: variable direction winds at 6 MPH (5 knots; 2.6 m/s)
Visibility: missing
Ceiling: unknown
Clouds: missing
Weather: no significant weather forecast for this period
Text: BECMG 1109/1111 22010KT
Forecast period: 0900 to 1800 UTC 11 August 2020
Forecast type: BECOMING: Conditions expected to become as follows by 1100 UTC 11 August 2020
Winds: from the SW (220 degrees) at 12 MPH (10 knots; 5.1 m/s)
Visibility: missing
Ceiling: unknown
Clouds: missing
Weather: no significant weather forecast for this period